Time;durP1;ratioP1;P1;durP2;ratioP2;P2;SDS_P1;SDS_P2;PMS_P1;PMS_P2;Temp;Humidity;BMP_temperature;BMP_pressure;BME280_temperature;BME280_humidity;BME280_pressure;Samples;Min_cycle;Max_cycle;Signal;HPM_P1;HPM_P2
2021/08/27 00:01:57;;;;;;;15.63;4.43;;;15.40;99.90;;;;;;5034022;28;20091;-58
2021/08/27 00:04:23;;;;;;;14.00;4.20;;;15.30;99.90;;;;;;5033917;28;20026;-57
2021/08/27 00:06:48;;;;;;;17.02;3.97;;;15.30;99.90;;;;;;5033842;28;20026;-58
2021/08/27 00:09:14;;;;;;;14.88;4.07;;;15.20;99.90;;;;;;5033809;28;20475;-58
2021/08/27 00:11:39;;;;;;;12.80;3.53;;;15.20;99.90;;;;;;5033816;28;20029;-58
2021/08/27 00:14:05;;;;;;;13.05;3.35;;;15.10;99.90;;;;;;5033727;28;20034;-57
2021/08/27 00:16:31;;;;;;;18.80;3.70;;;15.10;99.90;;;;;;5033682;28;20030;-58
2021/08/27 00:18:56;;;;;;;9.45;3.08;;;15.10;99.90;;;;;;5033450;28;20048;-58
2021/08/27 00:21:22;;;;;;;10.43;3.20;;;15.10;99.90;;;;;;5033491;28;20022;-58
2021/08/27 00:23:47;;;;;;;16.85;3.88;;;15.10;99.90;;;;;;5033521;28;20048;-58
2021/08/27 00:26:13;;;;;;;11.00;3.08;;;15.00;99.90;;;;;;5033622;28;20127;-58
2021/08/27 00:28:39;;;;;;;11.55;2.72;;;15.00;99.90;;;;;;5033322;28;20041;-58
2021/08/27 00:31:04;;;;;;;9.23;2.67;;;15.10;99.90;;;;;;5033669;28;20037;-58
2021/08/27 00:33:30;;;;;;;13.23;2.90;;;15.00;99.90;;;;;;5033508;28;20029;-58
2021/08/27 00:35:55;;;;;;;9.00;2.65;;;15.10;99.90;;;;;;5031913;28;20394;-58
2021/08/27 00:38:21;;;;;;;11.82;3.03;;;15.00;99.90;;;;;;5033112;28;20044;-57
2021/08/27 00:40:47;;;;;;;11.93;3.28;;;15.00;99.90;;;;;;5033451;28;20374;-58
2021/08/27 00:43:13;;;;;;;9.13;3.00;;;15.00;99.90;;;;;;5033116;28;20049;-58
2021/08/27 00:45:44;;;;;;;12.88;3.30;;;15.00;99.90;;;;;;5033320;28;20026;-58
2021/08/27 00:48:10;;;;;;;10.95;2.67;;;15.00;99.90;;;;;;5033071;28;20450;-58
2021/08/27 00:50:37;;;;;;;15.00;3.42;;;14.90;99.90;;;;;;5032955;28;20540;-58
2021/08/27 00:53:03;;;;;;;11.98;3.20;;;14.80;99.90;;;;;;5033002;28;20091;-58
2021/08/27 00:55:28;;;;;;;13.90;3.25;;;14.80;99.90;;;;;;5033159;28;20030;-58
2021/08/27 00:57:54;;;;;;;17.27;3.80;;;14.70;99.90;;;;;;5032752;28;20048;-58
2021/08/27 01:00:21;;;;;;;15.23;3.38;;;14.70;99.90;;;;;;5032681;28;20064;-58
2021/08/27 01:02:47;;;;;;;19.63;3.83;;;14.70;99.90;;;;;;5032824;28;20030;-57
2021/08/27 01:05:12;;;;;;;15.15;4.05;;;14.70;99.90;;;;;;5032730;28;20089;-57
2021/08/27 01:08:01;;;;;;;9.05;3.35;;;14.70;99.90;;;;;;5032743;28;20017;-57
2021/08/27 01:10:33;;;;;;;15.32;4.00;;;14.70;99.90;;;;;;5026093;28;20025;-57
2021/08/27 01:13:01;;;;;;;15.50;4.47;;;14.70;99.90;;;;;;5032674;28;20474;-58
2021/08/27 01:15:52;;;;;;;17.58;4.25;;;14.60;99.90;;;;;;5032519;28;20022;-58
2021/08/27 01:18:28;;;;;;;15.80;4.75;;;14.70;99.90;;;;;;5032297;28;20529;-58
2021/08/27 01:21:18;;;;;;;14.20;5.13;;;14.70;99.90;;;;;;5032409;28;20351;-58
2021/08/27 01:23:52;;;;;;;18.73;5.07;;;14.70;99.90;;;;;;5032608;28;20478;-58
2021/08/27 01:26:21;;;;;;;12.48;4.60;;;14.70;99.90;;;;;;5032308;28;20022;-58
2021/08/27 01:28:49;;;;;;;11.52;4.68;;;14.60;99.90;;;;;;5032129;28;20033;-58
2021/08/27 01:31:32;;;;;;;13.93;4.38;;;14.60;99.90;;;;;;5032361;28;20490;-58
2021/08/27 01:34:37;;;;;;;17.08;5.10;;;14.60;99.90;;;;;;5032283;28;20076;-58
2021/08/27 01:37:07;;;;;;;10.43;4.40;;;14.40;99.90;;;;;;4990134;28;20062;-57
2021/08/27 01:39:40;;;;;;;13.70;4.90;;;14.40;99.90;;;;;;4990349;28;20076;-57
2021/08/27 01:42:09;;;;;;;17.48;5.47;;;14.40;99.90;;;;;;5013290;28;20033;-59
2021/08/27 01:44:35;;;;;;;16.38;5.00;;;14.40;99.90;;;;;;5032169;28;20025;-58
2021/08/27 01:47:03;;;;;;;13.48;4.75;;;14.40;99.90;;;;;;5031934;28;20021;-57
2021/08/27 01:49:30;;;;;;;13.80;4.15;;;14.30;99.90;;;;;;5031762;28;20418;-57
2021/08/27 01:52:04;;;;;;;9.00;3.95;;;14.20;99.90;;;;;;5030551;28;20029;-58
2021/08/27 01:54:31;;;;;;;11.50;3.67;;;14.20;99.90;;;;;;5032033;28;20033;-58
2021/08/27 01:56:58;;;;;;;11.88;4.00;;;14.20;99.90;;;;;;5031814;28;20021;-58
2021/08/27 01:59:30;;;;;;;11.50;4.05;;;14.20;99.90;;;;;;5031765;28;20029;-58
2021/08/27 02:01:56;;;;;;;11.37;3.70;;;14.20;99.90;;;;;;5031809;28;20067;-57
2021/08/27 02:04:23;;;;;;;10.45;3.30;;;14.10;99.90;;;;;;5031934;28;20083;-58
2021/08/27 02:06:49;;;;;;;8.57;3.22;;;14.10;99.90;;;;;;5031649;28;20029;-59
2021/08/27 02:09:17;;;;;;;13.45;3.10;;;14.10;99.90;;;;;;5030468;28;20450;-58
2021/08/27 02:11:43;;;;;;;7.28;2.97;;;14.00;99.90;;;;;;5031756;28;20044;-58
2021/08/27 02:14:10;;;;;;;13.23;3.03;;;14.00;99.90;;;;;;5031686;28;20022;-58
2021/08/27 02:16:36;;;;;;;8.60;3.10;;;14.00;99.90;;;;;;5031535;28;20037;-58
2021/08/27 02:19:03;;;;;;;9.45;3.05;;;14.00;99.90;;;;;;5033317;28;20025;-58
2021/08/27 02:21:34;;;;;;;11.63;2.95;;;14.00;99.90;;;;;;5035897;28;20022;-58
2021/08/27 02:24:02;;;;;;;8.25;2.95;;;14.00;99.90;;;;;;5034714;28;20068;-58
2021/08/27 02:26:29;;;;;;;10.18;2.90;;;14.00;99.90;;;;;;5035808;28;20071;-58
2021/08/27 02:28:56;;;;;;;6.68;2.28;;;14.00;99.90;;;;;;5035775;28;20021;-58
2021/08/27 02:31:25;;;;;;;11.45;2.60;;;14.00;99.90;;;;;;5035578;28;20036;-58
2021/08/27 02:33:52;;;;;;;9.02;2.40;;;14.00;99.90;;;;;;5035559;28;20033;-58
2021/08/27 02:36:18;;;;;;;9.88;2.30;;;14.10;99.90;;;;;;5035456;28;20528;-59
2021/08/27 02:38:47;;;;;;;10.10;2.17;;;14.20;99.90;;;;;;5034231;28;20109;-59
2021/08/27 02:41:13;;;;;;;9.60;2.33;;;14.40;99.90;;;;;;5035457;28;20163;-58
2021/08/27 02:43:39;;;;;;;9.55;2.20;;;14.40;99.90;;;;;;5035404;28;20072;-59
2021/08/27 02:46:04;;;;;;;4.78;2.47;;;14.40;99.90;;;;;;5035353;28;20029;-58
2021/08/27 02:48:30;;;;;;;14.45;2.30;;;14.40;99.90;;;;;;5035231;28;20021;-58
2021/08/27 02:51:13;;;;;;;9.18;1.83;;;14.40;99.90;;;;;;5035241;28;20030;-58
2021/08/27 02:53:43;;;;;;;7.32;1.80;;;14.50;99.90;;;;;;5035229;28;20025;-58
2021/08/27 02:56:22;;;;;;;8.95;2.00;;;14.50;99.90;;;;;;5035087;28;20025;-58
2021/08/27 02:58:50;;;;;;;10.57;1.85;;;14.50;99.90;;;;;;5035200;28;20474;-58
2021/08/27 03:01:37;;;;;;;6.90;1.90;;;14.60;99.90;;;;;;5034979;28;20024;-58
2021/08/27 03:04:26;;;;;;;9.13;2.38;;;14.60;99.90;;;;;;5033984;28;20021;-58
2021/08/27 03:07:07;;;;;;;11.02;2.60;;;14.60;99.90;;;;;;5034736;28;20030;-58
2021/08/27 03:09:41;;;;;;;6.82;2.47;;;14.70;99.90;;;;;;5035081;28;20026;-58
2021/08/27 03:12:09;;;;;;;10.38;2.45;;;14.60;99.90;;;;;;5034956;28;20378;-58
2021/08/27 03:14:40;;;;;;;14.70;2.10;;;14.60;99.90;;;;;;5034801;28;20035;-58
2021/08/27 03:17:09;;;;;;;7.53;2.40;;;14.70;99.90;;;;;;5034727;28;20465;-58
2021/08/27 03:19:49;;;;;;;7.43;2.10;;;14.70;99.90;;;;;;5034852;28;20041;-58
2021/08/27 03:22:22;;;;;;;10.10;2.20;;;14.70;99.90;;;;;;5034745;28;20025;-58
2021/08/27 03:25:01;;;;;;;9.13;2.60;;;14.70;99.90;;;;;;5034695;28;20226;-58
2021/08/27 03:27:34;;;;;;;13.50;2.45;;;14.90;99.90;;;;;;5034513;28;20434;-58
2021/08/27 03:30:05;;;;;;;8.63;2.35;;;14.90;99.90;;;;;;5034585;28;20029;-58
2021/08/27 03:32:31;;;;;;;9.00;2.10;;;14.90;99.90;;;;;;5034522;28;20037;-58
2021/08/27 03:34:58;;;;;;;10.80;2.25;;;14.80;99.90;;;;;;5034515;28;20745;-58
2021/08/27 03:37:24;;;;;;;7.15;2.40;;;14.80;99.90;;;;;;5034290;28;20401;-58
2021/08/27 03:39:51;;;;;;;10.07;2.47;;;14.70;99.90;;;;;;5034423;28;20033;-58
2021/08/27 03:42:19;;;;;;;12.45;2.53;;;14.70;99.90;;;;;;5034132;28;20402;-58
2021/08/27 03:44:46;;;;;;;8.52;2.60;;;14.70;99.90;;;;;;5034629;28;20021;-58
2021/08/27 03:47:14;;;;;;;11.02;2.72;;;14.70;99.90;;;;;;5034194;28;20390;-58
2021/08/27 03:49:40;;;;;;;8.68;2.40;;;14.80;99.90;;;;;;5032878;28;20429;-58
2021/08/27 03:52:06;;;;;;;10.82;2.95;;;14.90;99.90;;;;;;5034121;28;20045;-59
2021/08/27 03:54:33;;;;;;;17.30;2.85;;;14.90;99.90;;;;;;5034080;28;20041;-58
2021/08/27 03:57:01;;;;;;;9.70;2.60;;;14.90;99.90;;;;;;5033987;28;20508;-58
2021/08/27 03:59:29;;;;;;;10.35;2.25;;;14.90;99.90;;;;;;5033789;28;20038;-58
2021/08/27 04:01:55;;;;;;;9.90;2.40;;;14.90;99.90;;;;;;5033868;28;20026;-58
2021/08/27 04:04:22;;;;;;;11.13;2.15;;;14.90;99.90;;;;;;5034056;28;20036;-59
2021/08/27 04:06:58;;;;;;;11.88;2.80;;;14.80;99.90;;;;;;5033917;28;20024;-58
2021/08/27 04:09:25;;;;;;;7.82;2.30;;;14.70;99.90;;;;;;5033780;28;20432;-58
2021/08/27 04:11:50;;;;;;;9.73;2.22;;;14.70;99.90;;;;;;5033726;28;20037;-58
2021/08/27 04:14:17;;;;;;;7.88;2.40;;;14.70;99.90;;;;;;5033969;28;20367;-58
2021/08/27 04:16:43;;;;;;;9.05;2.30;;;14.50;99.90;;;;;;5032394;28;20498;-58
2021/08/27 04:19:09;;;;;;;11.50;2.55;;;14.40;99.90;;;;;;5033593;28;20032;-58
2021/08/27 04:21:35;;;;;;;6.25;2.22;;;14.30;99.90;;;;;;5033969;28;20100;-58
2021/08/27 04:24:00;;;;;;;8.35;2.30;;;14.20;99.90;;;;;;5033548;28;20355;-58
2021/08/27 04:26:26;;;;;;;12.88;2.67;;;14.10;99.90;;;;;;5032172;28;20076;-58
2021/08/27 04:28:52;;;;;;;13.93;2.35;;;14.00;99.90;;;;;;5032092;28;20385;-58
2021/08/27 04:31:17;;;;;;;12.15;2.65;;;14.00;99.90;;;;;;5031927;28;20153;-58
2021/08/27 04:33:43;;;;;;;10.18;2.67;;;14.00;99.90;;;;;;5033338;28;20104;-58
2021/08/27 04:36:09;;;;;;;10.93;2.70;;;14.00;99.90;;;;;;5033151;28;20045;-58
2021/08/27 04:38:34;;;;;;;10.40;2.15;;;14.00;99.90;;;;;;5033162;28;20040;-58
2021/08/27 04:41:00;;;;;;;10.43;2.22;;;13.90;99.90;;;;;;5032658;28;20053;-58
2021/08/27 04:43:26;;;;;;;10.95;3.25;;;13.90;99.90;;;;;;5033103;28;20029;-58
2021/08/27 04:45:51;;;;;;;15.73;3.25;;;13.90;99.90;;;;;;5033239;28;20075;-58
2021/08/27 04:48:17;;;;;;;8.75;3.20;;;13.90;99.90;;;;;;5032941;28;20033;-58
2021/08/27 04:50:42;;;;;;;8.77;2.45;;;13.90;99.90;;;;;;5032894;28;20490;-58
2021/08/27 04:53:08;;;;;;;16.25;3.05;;;13.80;99.90;;;;;;5032929;28;20057;-58
2021/08/27 04:55:33;;;;;;;12.25;3.20;;;13.80;99.90;;;;;;5032789;28;20390;-58
2021/08/27 04:57:59;;;;;;;12.05;3.13;;;13.80;99.90;;;;;;5032757;28;20087;-58
2021/08/27 05:00:25;;;;;;;15.57;3.90;;;13.80;99.90;;;;;;5032756;28;20382;-58
2021/08/27 05:02:50;;;;;;;20.23;5.55;;;13.90;99.90;;;;;;5032887;28;20112;-58
2021/08/27 05:05:16;;;;;;;16.38;4.07;;;13.80;99.90;;;;;;5032784;28;20105;-58
2021/08/27 05:07:42;;;;;;;11.98;3.30;;;13.80;99.90;;;;;;5032636;28;20429;-58
2021/08/27 05:10:08;;;;;;;12.07;4.38;;;13.80;99.90;;;;;;5033132;28;20026;-58
2021/08/27 05:12:34;;;;;;;10.57;3.95;;;13.90;99.90;;;;;;5032647;28;20112;-58
2021/08/27 05:15:00;;;;;;;21.48;4.47;;;13.90;99.90;;;;;;5031322;28;20034;-59
2021/08/27 05:17:25;;;;;;;12.57;4.50;;;14.00;99.90;;;;;;5032429;28;20029;-58
2021/08/27 05:19:51;;;;;;;28.85;8.70;;;14.00;99.90;;;;;;5032260;28;20375;-58
2021/08/27 05:22:17;;;;;;;29.63;6.57;;;14.00;99.90;;;;;;5032220;28;20115;-58
2021/08/27 05:24:44;;;;;;;34.22;12.20;;;14.10;99.90;;;;;;5032306;28;20474;-58
2021/08/27 05:27:09;;;;;;;20.95;6.05;;;14.10;99.90;;;;;;5032266;28;20017;-58
2021/08/27 05:29:35;;;;;;;50.70;8.15;;;14.20;99.90;;;;;;5032251;28;20478;-59
2021/08/27 05:32:00;;;;;;;10.85;3.20;;;14.20;99.90;;;;;;5032103;28;20057;-58
2021/08/27 05:34:26;;;;;;;12.93;2.80;;;14.20;99.90;;;;;;5032218;28;20033;-58
2021/08/27 05:36:52;;;;;;;15.48;3.28;;;14.20;99.90;;;;;;5032048;28;20060;-58
2021/08/27 05:39:17;;;;;;;9.05;3.42;;;14.30;99.90;;;;;;5032120;28;20022;-59
2021/08/27 05:41:44;;;;;;;12.77;2.78;;;14.40;99.90;;;;;;5032087;28;20021;-59
2021/08/27 05:44:10;;;;;;;8.85;2.58;;;14.70;99.90;;;;;;5032309;28;20064;-58
2021/08/27 05:46:35;;;;;;;7.90;2.40;;;14.80;99.90;;;;;;5032045;28;20048;-58
2021/08/27 05:49:01;;;;;;;9.52;2.83;;;14.90;99.90;;;;;;5032142;28;20025;-58
2021/08/27 05:51:27;;;;;;;13.52;3.33;;;14.90;99.90;;;;;;5032020;28;20034;-58
2021/08/27 05:53:53;;;;;;;12.77;3.47;;;15.00;99.90;;;;;;5031258;28;20021;-59
2021/08/27 05:56:18;;;;;;;11.77;2.85;;;15.10;99.90;;;;;;5031853;28;20113;-58
2021/08/27 05:58:47;;;;;;;15.07;3.30;;;15.20;99.90;;;;;;5031917;28;20060;-59
2021/08/27 06:01:13;;;;;;;14.23;3.33;;;15.30;99.90;;;;;;5031819;28;20021;-59
2021/08/27 06:03:39;;;;;;;9.48;3.63;;;15.20;99.90;;;;;;5030526;28;20045;-58
2021/08/27 06:06:04;;;;;;;12.48;3.78;;;15.30;99.90;;;;;;5030850;28;20584;-58
2021/08/27 06:08:30;;;;;;;10.20;3.80;;;15.30;99.90;;;;;;5028986;28;20033;-58
2021/08/27 06:10:56;;;;;;;10.57;3.72;;;15.20;99.90;;;;;;5031296;28;20120;-58
2021/08/27 06:13:21;;;;;;;11.75;3.97;;;15.30;99.90;;;;;;5030672;28;20109;-58
2021/08/27 06:15:48;;;;;;;11.38;3.63;;;15.20;99.90;;;;;;5031794;28;20498;-59
2021/08/27 06:18:14;;;;;;;12.13;3.70;;;15.20;99.90;;;;;;5031306;28;20037;-59
2021/08/27 06:20:40;;;;;;;15.68;3.92;;;15.20;99.90;;;;;;5030346;28;20026;-58
2021/08/27 06:23:06;;;;;;;10.57;3.55;;;15.20;99.90;;;;;;5030039;28;20030;-58
2021/08/27 06:25:31;;;;;;;11.93;3.72;;;15.20;99.90;;;;;;5030970;28;20373;-58
2021/08/27 06:27:57;;;;;;;15.00;4.38;;;15.30;99.90;;;;;;5030934;28;20060;-58
2021/08/27 06:30:22;;;;;;;12.02;3.83;;;15.30;99.90;;;;;;5031797;28;20024;-58
2021/08/27 06:32:51;;;;;;;10.23;3.28;;;15.30;99.90;;;;;;5031249;28;20028;-59
2021/08/27 06:35:17;;;;;;;15.40;3.97;;;15.40;99.90;;;;;;5024991;28;20026;-58
2021/08/27 06:40:27;;;;;;;13.23;4.13;;;15.50;99.90;;;;;;5031476;28;20398;-58
2021/08/27 06:42:53;;;;;;;14.13;3.92;;;15.60;99.90;;;;;;5028371;28;20029;-58
2021/08/27 06:45:18;;;;;;;12.50;4.28;;;15.70;99.90;;;;;;5031213;28;20025;-59
2021/08/27 06:47:44;;;;;;;14.52;4.15;;;15.80;99.90;;;;;;5031176;28;20422;-58
2021/08/27 06:50:10;;;;;;;12.93;3.53;;;15.80;99.90;;;;;;5031151;28;20124;-58
2021/08/27 06:52:35;;;;;;;8.98;3.70;;;15.90;99.90;;;;;;5029631;28;20387;-58
2021/08/27 06:55:02;;;;;;;12.85;3.70;;;16.00;99.90;;;;;;5031100;28;20388;-58
2021/08/27 06:57:28;;;;;;;12.45;3.67;;;16.10;99.90;;;;;;5028368;28;20100;-58
2021/08/27 06:59:54;;;;;;;11.73;3.58;;;16.10;99.90;;;;;;5030481;28;20116;-58
2021/08/27 07:02:19;;;;;;;11.48;3.75;;;16.40;99.90;;;;;;5028230;28;20018;-58
2021/08/27 07:04:45;;;;;;;11.85;3.53;;;16.60;99.90;;;;;;5026845;28;20128;-58
2021/08/27 07:07:11;;;;;;;12.45;3.28;;;16.50;99.90;;;;;;5031300;28;20036;-58
2021/08/27 07:09:36;;;;;;;7.57;3.60;;;16.80;99.90;;;;;;5031289;28;20052;-58
2021/08/27 07:12:02;;;;;;;9.35;3.40;;;16.70;99.90;;;;;;5031501;28;20454;-58
2021/08/27 07:14:27;;;;;;;12.75;3.47;;;16.80;99.90;;;;;;5028445;28;20025;-58
2021/08/27 07:16:53;;;;;;;14.15;3.78;;;16.90;99.90;;;;;;5031531;28;20026;-58
2021/08/27 07:19:19;;;;;;;10.82;3.28;;;17.00;99.90;;;;;;5031218;28;20034;-58
2021/08/27 07:21:45;;;;;;;12.57;3.20;;;17.20;99.90;;;;;;5029800;28;20021;-58
2021/08/27 07:24:13;;;;;;;11.60;2.95;;;17.20;99.90;;;;;;5031478;28;20034;-58
2021/08/27 07:26:39;;;;;;;11.35;3.00;;;17.20;99.90;;;;;;5031413;28;20029;-58
2021/08/27 07:29:05;;;;;;;12.10;2.55;;;18.10;99.90;;;;;;5031252;28;20052;-58
2021/08/27 07:31:30;;;;;;;10.52;2.20;;;19.70;99.90;;;;;;5028326;28;20111;-57
2021/08/27 07:33:56;;;;;;;10.90;2.60;;;21.10;99.90;;;;;;5015938;28;20443;-57
2021/08/27 07:36:21;;;;;;;11.30;2.05;;;21.60;99.90;;;;;;5013079;28;20091;-57
2021/08/27 07:38:47;;;;;;;10.65;1.92;;;22.30;99.90;;;;;;5013015;28;20041;-58
2021/08/27 07:41:12;;;;;;;10.00;2.20;;;22.90;99.90;;;;;;5030178;28;20028;-58
2021/08/27 07:43:38;;;;;;;9.60;2.10;;;23.00;99.90;;;;;;5030275;28;20208;-58
2021/08/27 07:46:04;;;;;;;10.07;3.30;;;23.60;99.90;;;;;;5030729;28;20032;-58
2021/08/27 07:48:29;;;;;;;8.27;2.58;;;23.90;99.90;;;;;;5030763;28;20040;-58
2021/08/27 07:50:55;;;;;;;8.20;2.30;;;24.50;99.90;;;;;;5029388;28;20152;-58
2021/08/27 07:53:23;;;;;;;8.77;1.70;;;24.50;99.90;;;;;;5027183;28;20037;-58
2021/08/27 07:55:48;;;;;;;6.15;1.58;;;24.30;99.90;;;;;;5029369;28;20371;-58
2021/08/27 07:58:14;;;;;;;5.35;1.55;;;24.00;99.90;;;;;;5028139;28;20041;-58
2021/08/27 08:00:40;;;;;;;7.95;1.67;;;23.80;99.90;;;;;;5030530;28;20029;-58
2021/08/27 08:03:05;;;;;;;9.50;1.58;;;24.20;99.90;;;;;;5030873;28;20106;-58
2021/08/27 08:05:31;;;;;;;5.88;1.70;;;24.20;99.90;;;;;;5030638;28;20097;-58
2021/08/27 08:07:56;;;;;;;9.02;1.50;;;24.20;99.90;;;;;;5025923;28;20096;-58
2021/08/27 08:10:22;;;;;;;5.22;1.27;;;25.00;99.90;;;;;;5028733;28;20029;-58
2021/08/27 08:12:47;;;;;;;5.47;1.40;;;25.60;99.50;;;;;;5027520;28;20096;-58
2021/08/27 08:15:14;;;;;;;6.20;1.42;;;25.70;99.40;;;;;;5028053;28;20459;-58
2021/08/27 08:17:41;;;;;;;5.63;1.42;;;25.80;99.00;;;;;;5030731;28;20111;-59
2021/08/27 08:20:07;;;;;;;8.27;1.30;;;25.50;98.60;;;;;;5030292;28;20041;-59
2021/08/27 08:22:33;;;;;;;4.78;1.40;;;25.30;99.20;;;;;;5029222;28;20033;-58
2021/08/27 08:24:58;;;;;;;6.47;1.60;;;24.50;99.90;;;;;;5028586;28;20490;-58
2021/08/27 08:27:24;;;;;;;8.20;2.03;;;23.80;99.90;;;;;;5028889;28;20028;-58
2021/08/27 08:29:49;;;;;;;6.38;1.40;;;23.60;99.90;;;;;;5029821;28;20033;-58
2021/08/27 08:32:15;;;;;;;5.90;1.50;;;23.60;99.90;;;;;;5029260;28;20034;-58
2021/08/27 08:34:41;;;;;;;4.80;1.35;;;23.80;99.90;;;;;;5029995;28;20056;-58
2021/08/27 08:37:08;;;;;;;8.07;1.48;;;25.00;99.30;;;;;;5029555;28;20315;-58
2021/08/27 08:39:37;;;;;;;6.65;1.45;;;24.90;99.10;;;;;;5029949;28;20080;-58
2021/08/27 08:42:03;;;;;;;7.97;1.77;;;24.80;98.70;;;;;;5030184;28;20034;-58
2021/08/27 08:44:29;;;;;;;7.60;1.30;;;25.10;98.90;;;;;;5028464;28;20030;-58
2021/08/27 08:46:55;;;;;;;5.72;1.50;;;24.60;98.80;;;;;;5029401;28;20033;-58
2021/08/27 08:49:26;;;;;;;4.22;1.40;;;24.20;99.40;;;;;;5029814;28;20109;-58
2021/08/27 08:51:53;;;;;;;5.50;1.23;;;22.80;99.90;;;;;;5029603;28;20036;-58
2021/08/27 08:54:19;;;;;;;8.48;1.60;;;22.30;99.90;;;;;;5029547;28;20075;-58
2021/08/27 08:56:46;;;;;;;4.95;1.55;;;22.30;99.90;;;;;;5029073;28;20486;-58
2021/08/27 08:59:12;;;;;;;3.70;1.38;;;22.90;99.90;;;;;;5029050;28;20333;-58
2021/08/27 09:01:38;;;;;;;7.97;1.58;;;23.60;99.90;;;;;;5026580;28;20160;-58
2021/08/27 09:04:04;;;;;;;4.72;1.38;;;23.80;99.90;;;;;;5028392;28;20574;-58
2021/08/27 09:06:30;;;;;;;4.38;1.23;;;24.10;99.90;;;;;;5029180;28;20486;-58
2021/08/27 09:09:00;;;;;;;7.80;1.65;;;24.20;99.60;;;;;;5028800;28;20029;-58
2021/08/27 09:11:26;;;;;;;4.82;1.25;;;24.50;99.10;;;;;;5029185;28;20017;-58
2021/08/27 09:13:58;;;;;;;5.68;1.17;;;24.20;99.00;;;;;;5028327;28;20033;-58
2021/08/27 09:16:27;;;;;;;8.33;1.57;;;23.50;99.90;;;;;;5029197;28;20124;-58
2021/08/27 09:18:53;;;;;;;6.22;1.50;;;22.60;99.90;;;;;;5028837;28;20041;-58
2021/08/27 09:21:34;;;;;;;8.57;1.73;;;22.40;99.90;;;;;;5026127;28;20029;-58
2021/08/27 09:24:26;;;;;;;6.05;1.80;;;23.10;99.90;;;;;;5029239;28;20033;-58
2021/08/27 09:26:57;;;;;;;5.78;1.52;;;24.00;99.90;;;;;;5028803;28;20398;-58
2021/08/27 09:29:44;;;;;;;4.63;1.33;;;24.40;99.30;;;;;;5028784;28;20406;-58
2021/08/27 09:32:28;;;;;;;4.53;1.17;;;25.10;98.50;;;;;;5027748;28;20112;-58
2021/08/27 09:35:23;;;;;;;4.80;1.13;;;25.90;97.20;;;;;;5029076;28;20025;-58
2021/08/27 09:37:51;;;;;;;3.67;1.25;;;26.30;96.10;;;;;;5028965;28;20049;-58
2021/08/27 09:40:28;;;;;;;4.18;1.33;;;26.50;94.70;;;;;;5028913;28;20132;-58
2021/08/27 09:42:56;;;;;;;7.20;1.13;;;27.10;94.10;;;;;;5029323;28;20029;-58
2021/08/27 09:45:42;;;;;;;2.70;0.80;;;26.90;93.00;;;;;;5027549;28;20021;-58
2021/08/27 09:48:10;;;;;;;5.78;1.20;;;26.70;92.80;;;;;;5029097;28;20409;-58
2021/08/27 09:50:38;;;;;;;5.15;1.20;;;25.60;93.40;;;;;;5028954;28;20047;-58
2021/08/27 09:53:06;;;;;;;6.70;1.00;;;24.00;96.30;;;;;;5027974;28;20064;-58
2021/08/27 09:55:34;;;;;;;5.85;1.30;;;22.60;98.90;;;;;;5028730;28;20025;-58
2021/08/27 09:58:12;;;;;;;4.90;1.20;;;21.70;99.90;;;;;;5027035;28;20080;-58
2021/08/27 10:00:42;;;;;;;7.75;1.50;;;21.20;99.90;;;;;;5026883;28;20071;-58
2021/08/27 10:03:19;;;;;;;10.80;2.20;;;20.90;99.90;;;;;;5026022;28;20349;-58
2021/08/27 10:05:48;;;;;;;7.55;2.30;;;20.80;99.90;;;;;;5027090;28;20127;-58
2021/08/27 10:08:25;;;;;;;6.32;1.40;;;20.40;99.90;;;;;;5022362;28;20032;-58
2021/08/27 10:10:53;;;;;;;4.40;1.25;;;20.30;99.90;;;;;;5010379;28;20025;-58
2021/08/27 10:13:21;;;;;;;6.88;1.60;;;20.30;99.90;;;;;;5024465;28;20025;-59
2021/08/27 10:15:48;;;;;;;9.98;1.60;;;20.30;99.90;;;;;;5011053;28;20029;-59
2021/08/27 10:18:13;;;;;;;4.55;1.23;;;20.50;99.90;;;;;;5026337;28;20032;-58
2021/08/27 10:20:41;;;;;;;7.63;1.50;;;21.30;99.90;;;;;;5027688;28;20025;-58
2021/08/27 10:23:09;;;;;;;5.35;1.20;;;22.20;99.90;;;;;;5016835;28;20029;-58
2021/08/27 10:25:37;;;;;;;6.60;1.55;;;22.60;99.90;;;;;;5019103;28;20361;-58
2021/08/27 10:28:04;;;;;;;4.10;1.27;;;22.80;99.90;;;;;;5022932;28;20124;-58
2021/08/27 10:30:48;;;;;;;3.25;1.20;;;23.50;99.90;;;;;;5028721;28;20068;-58
2021/08/27 10:33:14;;;;;;;4.72;1.02;;;24.50;99.90;;;;;;5008680;28;20030;-58
2021/08/27 10:35:40;;;;;;;6.50;1.25;;;24.60;99.90;;;;;;5008576;28;20054;-58
2021/08/27 10:38:06;;;;;;;2.08;1.00;;;26.10;99.90;;;;;;5008268;28;20033;-58
2021/08/27 10:40:39;;;;;;;3.45;0.80;;;26.80;97.20;;;;;;5012348;28;20054;-58
2021/08/27 10:43:05;;;;;;;5.85;1.85;;;26.30;95.80;;;;;;5012318;28;20034;-58
2021/08/27 10:45:40;;;;;;;2.88;0.90;;;26.20;95.20;;;;;;5011625;28;20474;-58
2021/08/27 10:48:15;;;;;;;3.53;1.05;;;24.90;96.50;;;;;;5012216;28;20108;-58
2021/08/27 10:50:47;;;;;;;4.05;0.90;;;24.10;98.80;;;;;;5012544;28;20061;-58
2021/08/27 10:53:36;;;;;;;8.10;2.08;;;23.70;99.60;;;;;;5011951;28;20030;-58
2021/08/27 10:56:05;;;;;;;6.20;1.27;;;23.20;99.90;;;;;;5015592;28;20030;-59
2021/08/27 10:58:40;;;;;;;5.20;1.10;;;22.70;99.90;;;;;;5028161;28;20038;-59
2021/08/27 11:01:06;;;;;;;4.05;1.02;;;22.70;99.90;;;;;;5031206;28;20029;-59
2021/08/27 11:04:03;;;;;;;3.22;0.90;;;23.40;99.90;;;;;;5031733;28;20045;-59
2021/08/27 11:06:30;;;;;;;5.70;1.63;;;23.50;99.90;;;;;;5029908;28;20497;-59
2021/08/27 11:09:13;;;;;;;3.88;1.08;;;23.20;99.90;;;;;;5028252;28;20429;-59
2021/08/27 11:11:39;;;;;;;9.75;1.30;;;22.90;99.90;;;;;;5031898;28;20117;-59
2021/08/27 11:14:21;;;;;;;7.10;1.27;;;22.80;99.90;;;;;;5031210;28;20490;-59
2021/08/27 11:16:58;;;;;;;2.95;1.30;;;22.30;99.90;;;;;;5031688;28;20079;-59
2021/08/27 11:19:35;;;;;;;6.70;1.30;;;22.00;99.90;;;;;;5031292;28;20448;-58
2021/08/27 11:22:10;;;;;;;7.53;0.90;;;21.60;99.90;;;;;;5031339;28;20069;-58
2021/08/27 11:24:37;;;;;;;5.07;1.10;;;21.40;99.90;;;;;;5028573;28;20046;-58
2021/08/27 11:27:05;;;;;;;2.58;1.15;;;21.00;99.90;;;;;;5029806;28;20033;-58
2021/08/27 11:29:36;;;;;;;2.50;0.93;;;20.70;99.90;;;;;;5025907;28;20344;-58
2021/08/27 11:32:08;;;;;;;1.67;0.93;;;20.30;99.90;;;;;;5029131;28;20029;-58
2021/08/27 11:34:52;;;;;;;2.53;0.98;;;20.10;99.90;;;;;;5030766;28;20456;-58
2021/08/27 11:37:21;;;;;;;3.55;0.80;;;19.90;99.90;;;;;;5030415;28;20468;-58
2021/08/27 11:39:47;;;;;;;5.50;1.27;;;19.80;99.90;;;;;;5029876;28;20490;-58
2021/08/27 11:42:14;;;;;;;3.97;1.10;;;19.70;99.90;;;;;;5030789;28;20026;-58
2021/08/27 11:44:43;;;;;;;6.35;1.10;;;19.70;99.90;;;;;;5030106;28;20021;-58
2021/08/27 11:47:13;;;;;;;3.60;1.35;;;19.80;99.90;;;;;;5030562;28;20502;-58
2021/08/27 11:49:46;;;;;;;6.93;1.00;;;19.80;99.90;;;;;;5029425;28;20579;-58
2021/08/27 11:52:14;;;;;;;5.50;1.40;;;19.80;99.90;;;;;;5029942;28;20393;-58
2021/08/27 11:54:41;;;;;;;4.70;1.10;;;19.90;99.90;;;;;;5030490;28;20029;-58
2021/08/27 11:57:15;;;;;;;5.18;1.15;;;20.10;99.90;;;;;;5029128;28;20111;-58
2021/08/27 11:59:42;;;;;;;3.88;1.00;;;20.30;99.90;;;;;;5028011;28;20036;-58
2021/08/27 12:02:16;;;;;;;6.68;1.52;;;20.50;99.90;;;;;;5027422;28;20033;-58
2021/08/27 12:04:42;;;;;;;5.20;1.58;;;20.80;99.90;;;;;;5029623;28;20057;-58
2021/08/27 12:07:10;;;;;;;4.28;1.60;;;20.90;99.90;;;;;;5031824;28;20529;-58
2021/08/27 12:09:37;;;;;;;5.10;1.42;;;21.20;99.90;;;;;;5033163;28;20397;-58
2021/08/27 12:12:03;;;;;;;5.05;1.67;;;21.30;99.90;;;;;;5033461;28;20037;-58
2021/08/27 12:14:50;;;;;;;3.58;1.30;;;21.70;99.90;;;;;;5032405;28;20118;-58
2021/08/27 12:17:28;;;;;;;6.30;1.90;;;22.20;99.90;;;;;;5033114;28;20032;-58
2021/08/27 12:19:58;;;;;;;3.20;1.52;;;22.60;99.90;;;;;;5032533;28;20029;-58
2021/08/27 12:22:27;;;;;;;6.68;1.80;;;22.90;99.70;;;;;;5031167;28;20562;-58
2021/08/27 12:24:54;;;;;;;7.25;2.15;;;22.90;99.90;;;;;;5031605;28;20051;-59
2021/08/27 12:27:21;;;;;;;5.35;2.03;;;22.70;99.90;;;;;;5032627;28;20021;-58
2021/08/27 12:30:07;;;;;;;4.75;1.75;;;22.60;99.90;;;;;;5032678;28;20021;-58
2021/08/27 12:32:32;;;;;;;5.80;2.13;;;22.50;99.90;;;;;;5032572;28;20271;-58
2021/08/27 12:35:00;;;;;;;8.43;2.15;;;22.30;99.90;;;;;;5032432;28;20052;-58
2021/08/27 12:37:27;;;;;;;4.88;1.92;;;22.20;99.90;;;;;;5032659;28;20045;-58
2021/08/27 12:39:52;;;;;;;6.35;2.05;;;22.10;99.90;;;;;;5032251;28;20025;-58
2021/08/27 12:42:20;;;;;;;8.20;2.50;;;22.00;99.90;;;;;;5032539;28;20030;-58
2021/08/27 12:44:58;;;;;;;6.78;1.85;;;22.00;99.90;;;;;;5030730;28;20104;-58
2021/08/27 12:47:41;;;;;;;6.72;2.22;;;22.70;99.90;;;;;;5032139;28;20017;-58
2021/08/27 12:50:16;;;;;;;8.23;1.98;;;23.00;99.90;;;;;;5032646;28;20025;-58
2021/08/27 12:52:59;;;;;;;7.85;2.17;;;23.40;99.90;;;;;;5032350;28;20088;-58
2021/08/27 12:55:29;;;;;;;6.78;2.08;;;23.40;99.90;;;;;;5032496;28;20493;-58